createdAt,value
2022-09-27T00:02:26.201Z,16.11
2022-09-27T00:04:55.873Z,16.23
2022-09-27T00:07:25.573Z,16.21
2022-09-27T00:09:53.954Z,16.06
2022-09-27T00:12:22.253Z,16.11
2022-09-27T00:14:50.625Z,16.15
2022-09-27T00:17:19.933Z,16.08
2022-09-27T00:19:48.353Z,16.04
2022-09-27T00:22:16.662Z,16.08
2022-09-27T00:24:46.325Z,16.15
2022-09-27T00:27:14.642Z,16.23
2022-09-27T00:29:43.153Z,16.29
2022-09-27T00:32:11.546Z,16.34
2022-09-27T00:34:40.618Z,16.33
2022-09-27T00:37:09.134Z,16.37
2022-09-27T00:39:38.353Z,16.39
2022-09-27T00:42:11.374Z,16.44
2022-09-27T00:45:08.661Z,16.49
2022-09-27T00:47:44.449Z,16.51
2022-09-27T00:50:23.218Z,16.51
2022-09-27T00:53:00.770Z,16.53
2022-09-27T00:55:34.022Z,16.51
2022-09-27T00:58:05.693Z,16.54
2022-09-27T01:00:34.462Z,16.55
2022-09-27T01:03:07.188Z,16.41
2022-09-27T01:05:35.981Z,16.57
2022-09-27T01:08:04.329Z,16.59
2022-09-27T01:10:42.167Z,16.46
2022-09-27T01:13:21.058Z,16.66
2022-09-27T01:15:59.116Z,16.32
2022-09-27T01:18:35.861Z,16.61
2022-09-27T01:21:27.418Z,16.61
2022-09-27T01:24:28.868Z,16.51
2022-09-27T01:27:35.055Z,16.55
2022-09-27T01:30:19.721Z,16.52
2022-09-27T01:32:59.667Z,16.52
2022-09-27T01:35:35.746Z,16.50
2022-09-27T01:38:13.592Z,16.52
2022-09-27T01:40:50.585Z,16.51
2022-09-27T01:43:46.870Z,16.51
2022-09-27T01:46:23.374Z,16.29
2022-09-27T01:49:13.666Z,16.48
2022-09-27T01:51:47.098Z,16.51
2022-09-27T01:54:20.607Z,16.51
2022-09-27T01:56:55.256Z,16.50
2022-09-27T01:59:33.573Z,16.23
2022-09-27T02:02:19.953Z,16.50
2022-09-27T02:05:21.086Z,16.48
2022-09-27T02:07:59.291Z,16.49
2022-09-27T02:10:32.677Z,16.53
2022-09-27T02:13:07.800Z,16.52
2022-09-27T02:15:49.626Z,16.52
2022-09-27T02:18:37.559Z,16.49
2022-09-27T02:21:09.014Z,16.10
2022-09-27T02:23:42.866Z,16.46
2022-09-27T02:26:19.246Z,16.45
2022-09-27T02:28:53.061Z,16.42
2022-09-27T02:31:28.889Z,16.41
2022-09-27T02:34:04.068Z,16.42
2022-09-27T02:36:33.221Z,16.43
2022-09-27T02:39:01.888Z,16.46
2022-09-27T02:41:32.337Z,16.49
2022-09-27T02:44:05.644Z,16.47
2022-09-27T02:46:54.897Z,16.45
2022-09-27T02:49:43.522Z,16.42
2022-09-27T02:52:40.657Z,16.34
2022-09-27T02:55:17.588Z,16.33
2022-09-27T02:58:12.196Z,16.31
2022-09-27T03:01:08.121Z,16.27
2022-09-27T03:03:53.495Z,16.28
2022-09-27T03:06:25.203Z,16.30
2022-09-27T03:08:54.007Z,16.30
2022-09-27T03:11:22.434Z,16.30
2022-09-27T03:14:08.028Z,16.25
2022-09-27T03:16:40.374Z,16.21
2022-09-27T03:19:44.180Z,16.18
2022-09-27T03:22:28.868Z,16.16
2022-09-27T03:24:57.640Z,16.19
2022-09-27T03:27:26.074Z,16.19
2022-09-27T03:29:54.473Z,16.19
2022-09-27T03:32:23.018Z,16.10
2022-09-27T03:35:11.522Z,16.07
2022-09-27T03:37:42.106Z,16.12
2022-09-27T03:40:11.757Z,15.96
2022-09-27T03:42:40.415Z,16.12
2022-09-27T03:45:09.779Z,16.13
2022-09-27T03:47:41.920Z,16.13
2022-09-27T03:50:12.873Z,16.15
2022-09-27T03:52:44.126Z,16.16
2022-09-27T03:55:13.465Z,16.14
2022-09-27T03:57:46.712Z,16.16
2022-09-27T04:00:17.318Z,16.16
2022-09-27T04:02:46.205Z,16.18
2022-09-27T04:05:27.339Z,16.19
2022-09-27T04:08:01.540Z,16.15
2022-09-27T04:10:32.545Z,16.14
2022-09-27T04:13:00.984Z,16.13
2022-09-27T04:15:33.631Z,16.12
2022-09-27T04:18:22.161Z,16.12
2022-09-27T04:20:50.482Z,16.08
2022-09-27T04:23:21.512Z,16.10
2022-09-27T04:25:53.424Z,16.12
2022-09-27T04:28:42.076Z,16.03
2022-09-27T04:31:10.525Z,16.08
2022-09-27T04:34:10.915Z,16.01
2022-09-27T04:36:38.251Z,16.01
2022-09-27T04:39:12.494Z,16.06
2022-09-27T04:41:45.764Z,16.03
2022-09-27T04:44:15.653Z,15.69
2022-09-27T04:46:48.988Z,16.00
2022-09-27T04:49:18.017Z,15.96
2022-09-27T04:51:47.214Z,15.95
2022-09-27T04:54:17.462Z,15.98
2022-09-27T04:56:57.388Z,15.97
2022-09-27T04:59:26.209Z,15.96
2022-09-27T05:01:55.047Z,15.95
2022-09-27T05:04:48.748Z,15.91
2022-09-27T05:07:20.504Z,15.91
2022-09-27T05:09:56.985Z,15.53
2022-09-27T05:12:26.953Z,15.88
2022-09-27T05:14:59.614Z,15.83
2022-09-27T05:17:34.316Z,15.83
2022-09-27T05:20:21.818Z,15.65
2022-09-27T05:22:56.164Z,15.83
2022-09-27T05:25:27.125Z,15.83
2022-09-27T05:27:55.609Z,15.81
2022-09-27T05:30:24.038Z,15.75
2022-09-27T05:32:56.282Z,15.81
2022-09-27T05:35:45.802Z,15.83
2022-09-27T05:38:14.861Z,15.84
2022-09-27T05:40:50.452Z,15.88
2022-09-27T05:43:20.152Z,15.88
2022-09-27T05:45:48.829Z,15.88
2022-09-27T05:48:20.289Z,15.88
2022-09-27T05:50:56.747Z,15.91
2022-09-27T05:53:25.070Z,15.92
2022-09-27T05:55:55.319Z,15.94
2022-09-27T05:58:32.708Z,15.95
2022-09-27T06:01:14.319Z,15.93
2022-09-27T06:04:11.642Z,15.98
2022-09-27T06:07:06.400Z,16.00
2022-09-27T06:09:35.017Z,16.02
2022-09-27T06:12:11.365Z,16.06
2022-09-27T06:14:41.275Z,16.10
2022-09-27T06:17:30.345Z,16.07
2022-09-27T06:20:01.151Z,16.11
2022-09-27T06:22:29.753Z,16.17
2022-09-27T06:25:04.085Z,16.22
2022-09-27T06:27:38.086Z,16.29
2022-09-27T06:30:11.716Z,16.33
2022-09-27T06:32:57.589Z,16.36
2022-09-27T06:35:41.281Z,16.40
2022-09-27T06:38:13.191Z,16.29
2022-09-27T06:40:49.507Z,16.50
2022-09-27T06:43:34.198Z,16.59
2022-09-27T06:46:15.052Z,16.62
2022-09-27T06:49:06.406Z,16.61
2022-09-27T06:51:39.468Z,16.64
2022-09-27T06:54:15.915Z,16.42
2022-09-27T06:56:56.178Z,16.64
2022-09-27T06:59:49.524Z,16.70
2022-09-27T07:02:36.670Z,16.77
2022-09-27T07:05:32.418Z,16.88
2022-09-27T07:08:11.997Z,17.04
2022-09-27T07:10:41.593Z,17.22
2022-09-27T07:13:12.279Z,17.37
2022-09-27T07:15:43.490Z,17.45
2022-09-27T07:18:15.878Z,17.34
2022-09-27T07:20:44.216Z,17.68
2022-09-27T07:23:13.184Z,17.85
2022-09-27T07:25:41.573Z,17.92
2022-09-27T07:28:18.463Z,18.04
2022-09-27T07:30:56.842Z,18.11
2022-09-27T07:33:25.615Z,18.18
2022-09-27T07:35:54.034Z,18.28
2022-09-27T07:38:22.495Z,18.41
2022-09-27T07:40:51.715Z,18.42
2022-09-27T07:43:20.811Z,18.46
2022-09-27T07:45:51.132Z,18.49
2022-09-27T07:48:54.942Z,18.47
2022-09-27T07:51:41.737Z,18.52
2022-09-27T07:54:28.223Z,18.57
2022-09-27T07:57:08.705Z,18.51
2022-09-27T07:59:47.078Z,18.42
2022-09-27T08:02:19.696Z,18.36
2022-09-27T08:04:49.602Z,18.23
2022-09-27T08:07:18.652Z,18.19
2022-09-27T08:09:50.908Z,18.18
2022-09-27T08:12:21.601Z,18.26
2022-09-27T08:14:51.346Z,18.41
2022-09-27T08:17:21.092Z,18.59
2022-09-27T08:20:10.417Z,18.76
2022-09-27T08:23:07.224Z,18.90
2022-09-27T08:25:43.596Z,19.00
2022-09-27T08:28:28.438Z,19.12
2022-09-27T08:31:02.664Z,19.16
2022-09-27T08:33:34.912Z,19.34
2022-09-27T08:36:05.607Z,19.56
2022-09-27T08:38:33.924Z,19.78
2022-09-27T08:41:09.477Z,19.88
2022-09-27T08:43:47.549Z,20.02
2022-09-27T08:46:27.120Z,20.22
2022-09-27T08:49:07.092Z,20.34
2022-09-27T08:51:37.636Z,20.38
2022-09-27T08:54:09.406Z,20.31
2022-09-27T08:56:38.906Z,20.33
2022-09-27T08:59:14.826Z,20.29
2022-09-27T09:01:44.314Z,20.16
2022-09-27T09:04:29.831Z,19.94
2022-09-27T09:07:09.790Z,19.78
2022-09-27T09:09:45.394Z,19.74
2022-09-27T09:12:48.192Z,19.73
2022-09-27T09:15:55.404Z,19.78
2022-09-27T09:18:40.389Z,19.74
2022-09-27T09:21:27.806Z,19.69
2022-09-27T09:24:19.008Z,19.70
2022-09-27T09:26:55.245Z,19.66
2022-09-27T09:29:37.794Z,19.71
2022-09-27T09:32:21.332Z,19.82
2022-09-27T09:34:55.945Z,19.82
2022-09-27T09:37:36.627Z,19.80
2022-09-27T09:40:17.643Z,19.82
2022-09-27T09:42:52.221Z,19.78
2022-09-27T09:45:26.331Z,19.74
2022-09-27T09:48:01.997Z,19.81
2022-09-27T09:50:35.349Z,19.87
2022-09-27T09:53:15.260Z,19.91
2022-09-27T09:55:49.710Z,19.93
2022-09-27T09:58:25.258Z,20.05
2022-09-27T10:01:02.587Z,20.12
2022-09-27T10:03:31.034Z,20.18
2022-09-27T10:05:59.321Z,20.21
2022-09-27T10:08:29.154Z,20.32
2022-09-27T10:11:23.417Z,20.32
2022-09-27T10:13:59.553Z,20.37
2022-09-27T10:16:29.285Z,20.46
2022-09-27T10:19:04.099Z,20.58
2022-09-27T10:21:35.080Z,20.63
2022-09-27T10:24:17.308Z,20.65
2022-09-27T10:27:09.371Z,20.57
2022-09-27T10:29:40.283Z,20.62
2022-09-27T10:32:25.490Z,20.79
2022-09-27T10:35:32.837Z,20.98
2022-09-27T10:38:22.755Z,21.17
2022-09-27T10:40:56.148Z,21.19
2022-09-27T10:43:30.673Z,21.13
2022-09-27T10:46:17.514Z,21.09
2022-09-27T10:48:49.280Z,20.98
2022-09-27T10:51:26.372Z,20.90
2022-09-27T10:53:58.799Z,20.77
2022-09-27T10:56:34.989Z,20.59
2022-09-27T10:59:05.555Z,20.44
2022-09-27T11:01:45.603Z,20.36
2022-09-27T11:04:40.290Z,20.22
2022-09-27T11:07:20.210Z,20.20
2022-09-27T11:10:03.461Z,20.15
2022-09-27T11:12:36.847Z,20.13
2022-09-27T11:15:08.421Z,20.16
2022-09-27T11:17:51.197Z,20.12
2022-09-27T11:20:35.910Z,19.95
2022-09-27T11:23:34.008Z,19.93
2022-09-27T11:26:31.033Z,20.10
2022-09-27T11:29:24.238Z,20.09
2022-09-27T11:32:35.845Z,20.10
2022-09-27T11:35:15.950Z,20.17
2022-09-27T11:37:53.332Z,20.24
2022-09-27T11:40:32.908Z,20.31
2022-09-27T11:43:35.372Z,20.40
2022-09-27T11:46:24.611Z,20.51
2022-09-27T11:49:29.608Z,20.55
2022-09-27T11:52:30.758Z,20.38
2022-09-27T11:55:21.684Z,20.40
2022-09-27T11:58:01.076Z,20.45
2022-09-27T12:00:43.629Z,20.55
2022-09-27T12:03:53.537Z,20.66
2022-09-27T12:06:35.088Z,20.58
2022-09-27T12:09:08.582Z,20.90
2022-09-27T12:11:42.715Z,20.89
2022-09-27T12:14:24.603Z,21.18
2022-09-27T12:16:57.270Z,21.20
2022-09-27T12:19:31.743Z,21.28
2022-09-27T12:22:11.313Z,21.27
2022-09-27T12:24:43.610Z,21.30
2022-09-27T12:27:38.624Z,21.39
2022-09-27T12:30:13.634Z,21.46
2022-09-27T12:32:52.047Z,21.50
2022-09-27T12:35:26.826Z,21.48
2022-09-27T12:38:00.566Z,21.44
2022-09-27T12:40:34.376Z,21.49
2022-09-27T12:43:10.118Z,21.52
2022-09-27T12:46:16.346Z,21.66
2022-09-27T12:48:54.858Z,21.74
2022-09-27T12:51:25.813Z,21.71
2022-09-27T12:54:25.350Z,21.61
2022-09-27T12:57:03.651Z,21.52
2022-09-27T12:59:48.215Z,21.43
2022-09-27T13:03:11.083Z,21.44
2022-09-27T13:06:29.044Z,21.53
2022-09-27T13:09:20.921Z,21.69
2022-09-27T13:12:02.399Z,21.75
2022-09-27T13:14:36.202Z,21.69
2022-09-27T13:17:05.517Z,21.59
2022-09-27T13:19:45.703Z,21.60
2022-09-27T13:22:38.117Z,21.65
2022-09-27T13:25:55.475Z,21.60
2022-09-27T13:29:02.309Z,21.66
2022-09-27T13:32:15.267Z,21.70
2022-09-27T13:35:13.819Z,21.87
2022-09-27T13:37:53.226Z,21.91
2022-09-27T13:40:31.949Z,21.90
2022-09-27T13:43:42.768Z,21.97
2022-09-27T13:46:27.980Z,22.06
2022-09-27T13:49:03.776Z,22.16
2022-09-27T13:52:03.265Z,22.23
2022-09-27T13:54:41.968Z,22.28
2022-09-27T13:57:45.277Z,22.17
2022-09-27T14:00:22.991Z,22.04
2022-09-27T14:03:02.738Z,21.99
2022-09-27T14:05:37.798Z,22.02
2022-09-27T14:08:08.537Z,22.09
2022-09-27T14:10:37.678Z,22.11
2022-09-27T14:13:08.014Z,22.08
2022-09-27T14:15:50.336Z,22.09
2022-09-27T14:18:20.008Z,22.06
2022-09-27T14:20:52.261Z,21.84
2022-09-27T14:23:52.237Z,21.89
2022-09-27T14:26:25.139Z,21.93
2022-09-27T14:28:54.267Z,21.97
2022-09-27T14:31:29.921Z,21.94
2022-09-27T14:34:21.039Z,21.82
2022-09-27T14:37:07.785Z,21.81
2022-09-27T14:39:55.773Z,21.73
2022-09-27T14:42:36.606Z,21.69
2022-09-27T14:45:15.875Z,21.60
2022-09-27T14:47:49.295Z,21.51
2022-09-27T14:50:24.508Z,21.35
2022-09-27T14:52:55.857Z,21.30
2022-09-27T14:55:27.716Z,21.23
2022-09-27T14:57:58.126Z,21.22
2022-09-27T15:00:31.169Z,21.20
2022-09-27T15:03:04.192Z,21.10
2022-09-27T15:05:34.542Z,21.05
2022-09-27T15:08:05.977Z,21.07
2022-09-27T15:10:36.604Z,21.04
2022-09-27T15:13:07.033Z,21.04
2022-09-27T15:15:38.322Z,21.02
2022-09-27T15:18:40.906Z,20.92
2022-09-27T15:21:10.725Z,20.85
2022-09-27T15:23:41.192Z,20.84
2022-09-27T15:26:14.224Z,20.75
2022-09-27T15:28:48.948Z,20.63
2022-09-27T15:31:18.307Z,20.57
2022-09-27T15:33:56.307Z,20.50
2022-09-27T15:36:51.926Z,20.36
2022-09-27T15:39:22.284Z,20.25
2022-09-27T15:42:08.977Z,20.17
2022-09-27T15:44:40.583Z,20.00
2022-09-27T15:47:41.528Z,19.89
2022-09-27T15:50:41.212Z,19.75
2022-09-27T15:53:10.621Z,19.60
2022-09-27T15:55:43.491Z,19.50
2022-09-27T15:58:16.997Z,19.53
2022-09-27T16:00:55.162Z,19.49
2022-09-27T16:03:23.837Z,19.44
2022-09-27T16:05:56.280Z,19.39
2022-09-27T16:08:24.621Z,19.41
2022-09-27T16:10:55.145Z,19.46
2022-09-27T16:13:23.472Z,19.41
2022-09-27T16:15:51.964Z,19.41
2022-09-27T16:18:20.219Z,19.41
2022-09-27T16:20:48.497Z,19.41
2022-09-27T16:23:18.423Z,19.40
2022-09-27T16:25:46.649Z,19.36
2022-09-27T16:28:14.853Z,19.37
2022-09-27T16:30:43.076Z,19.37
2022-09-27T16:33:11.481Z,19.35
2022-09-27T16:35:42.063Z,19.26
2022-09-27T16:38:11.280Z,19.22
2022-09-27T16:40:40.987Z,19.19
2022-09-27T16:43:09.259Z,19.14
2022-09-27T16:45:37.609Z,19.04
2022-09-27T16:48:05.956Z,19.01
2022-09-27T16:50:51.298Z,18.93
2022-09-27T16:53:19.572Z,18.80
2022-09-27T16:55:50.212Z,18.75
2022-09-27T16:58:18.429Z,18.71
2022-09-27T17:00:46.609Z,18.70
2022-09-27T17:03:14.931Z,18.73
2022-09-27T17:05:43.165Z,18.71
2022-09-27T17:08:11.476Z,18.63
2022-09-27T17:10:41.360Z,18.57
2022-09-27T17:13:11.035Z,18.53
2022-09-27T17:15:39.630Z,18.57
2022-09-27T17:18:07.914Z,18.63
2022-09-27T17:20:36.078Z,18.69
2022-09-27T17:23:04.628Z,18.68
2022-09-27T17:25:33.153Z,18.71
2022-09-27T17:28:01.437Z,18.72
2022-09-27T17:30:32.049Z,18.68
2022-09-27T17:33:00.332Z,18.60
2022-09-27T17:35:28.513Z,18.63
2022-09-27T17:37:56.746Z,18.62
2022-09-27T17:40:25.032Z,18.55
2022-09-27T17:42:53.459Z,18.57
2022-09-27T17:45:21.725Z,18.47
2022-09-27T17:48:12.897Z,18.57
2022-09-27T17:50:41.785Z,18.50
2022-09-27T17:53:09.968Z,18.48
2022-09-27T17:55:38.200Z,18.38
2022-09-27T17:58:06.499Z,18.30
2022-09-27T18:00:34.973Z,18.37
2022-09-27T18:03:04.606Z,18.38
2022-09-27T18:05:33.099Z,18.13
2022-09-27T18:08:01.683Z,18.25
2022-09-27T18:10:29.941Z,18.22
2022-09-27T18:12:58.815Z,17.89
2022-09-27T18:15:27.374Z,18.17
2022-09-27T18:17:58.305Z,18.15
2022-09-27T18:20:28.154Z,18.14
2022-09-27T18:22:57.308Z,18.07
2022-09-27T18:25:25.643Z,18.02
2022-09-27T18:27:55.972Z,17.97
2022-09-27T18:30:24.437Z,17.92
2022-09-27T18:32:53.839Z,17.90
2022-09-27T18:35:24.274Z,17.88
2022-09-27T18:37:54.516Z,17.82
2022-09-27T18:40:44.546Z,17.77
2022-09-27T18:43:11.044Z,17.48
2022-09-27T18:45:39.909Z,17.76
2022-09-27T18:48:08.236Z,17.65
2022-09-27T18:50:37.682Z,17.62
2022-09-27T18:53:08.378Z,17.71
2022-09-27T18:55:38.526Z,17.69
2022-09-27T18:58:07.058Z,17.65
2022-09-27T19:00:35.437Z,17.66
2022-09-27T19:03:04.169Z,17.62
2022-09-27T19:05:32.510Z,17.25
2022-09-27T19:08:00.690Z,17.52
2022-09-27T19:10:30.444Z,17.48
2022-09-27T19:12:58.651Z,17.31
2022-09-27T19:15:26.920Z,17.29
2022-09-27T19:17:55.488Z,17.24
2022-09-27T19:20:23.659Z,17.18
2022-09-27T19:22:51.810Z,17.15
2022-09-27T19:25:20.186Z,17.13
2022-09-27T19:27:49.870Z,17.11
2022-09-27T19:30:18.751Z,17.06
2022-09-27T19:32:47.461Z,17.11
2022-09-27T19:35:16.052Z,17.10
2022-09-27T19:37:44.352Z,17.13
2022-09-27T19:40:12.558Z,17.16
2022-09-27T19:42:40.786Z,17.16
2022-09-27T19:45:12.410Z,17.16
2022-09-27T19:47:40.640Z,17.15
2022-09-27T19:50:09.774Z,17.18
2022-09-27T19:52:38.820Z,17.19
2022-09-27T19:55:08.156Z,17.17
2022-09-27T19:57:36.441Z,17.17
2022-09-27T20:00:06.556Z,17.18
2022-09-27T20:02:36.329Z,17.20
2022-09-27T20:05:04.927Z,17.19
2022-09-27T20:07:35.081Z,17.21
2022-09-27T20:10:03.397Z,17.23
2022-09-27T20:12:31.721Z,17.24
2022-09-27T20:14:59.957Z,17.26
2022-09-27T20:17:32.073Z,17.28
2022-09-27T20:20:01.925Z,17.30
2022-09-27T20:22:30.203Z,17.26
2022-09-27T20:24:58.664Z,17.26
2022-09-27T20:27:26.836Z,17.28
2022-09-27T20:29:55.169Z,17.26
2022-09-27T20:32:27.732Z,17.25
2022-09-27T20:34:56.586Z,17.19
2022-09-27T20:37:26.647Z,17.21
2022-09-27T20:39:54.902Z,17.22
2022-09-27T20:42:23.306Z,17.25
2022-09-27T20:44:54.300Z,17.16
2022-09-27T20:47:23.127Z,17.23
2022-09-27T20:49:51.481Z,17.26
2022-09-27T20:52:20.841Z,17.27
2022-09-27T20:54:50.413Z,17.24
2022-09-27T20:57:27.833Z,17.25
2022-09-27T21:00:10.153Z,17.26
2022-09-27T21:02:38.461Z,17.28
2022-09-27T21:05:07.426Z,17.33
2022-09-27T21:07:35.588Z,17.36
2022-09-27T21:10:06.029Z,17.36
2022-09-27T21:12:34.250Z,17.38
2022-09-27T21:15:02.513Z,17.34
2022-09-27T21:17:30.786Z,17.36
2022-09-27T21:19:58.947Z,17.37
2022-09-27T21:22:27.266Z,17.38
2022-09-27T21:24:56.485Z,17.37
2022-09-27T21:27:26.246Z,17.39
2022-09-27T21:29:54.452Z,17.32
2022-09-27T21:32:22.686Z,17.44
2022-09-27T21:34:51.011Z,17.32
2022-09-27T21:37:19.271Z,17.44
2022-09-27T21:39:47.418Z,17.45
2022-09-27T21:42:15.789Z,17.46
2022-09-27T21:44:45.630Z,17.46
2022-09-27T21:47:14.710Z,17.24
2022-09-27T21:49:42.850Z,17.42
2022-09-27T21:52:11.149Z,17.42
2022-09-27T21:54:39.383Z,17.41
2022-09-27T21:57:07.688Z,17.39
2022-09-27T21:59:35.840Z,17.37
2022-09-27T22:02:05.624Z,17.38
2022-09-27T22:04:33.843Z,17.22
2022-09-27T22:07:02.065Z,16.59
2022-09-27T22:09:30.306Z,17.30
2022-09-27T22:11:58.616Z,17.28
2022-09-27T22:14:26.933Z,17.25
2022-09-27T22:16:55.249Z,17.25
2022-09-27T22:19:24.875Z,17.27
2022-09-27T22:21:54.092Z,17.19
2022-09-27T22:24:22.417Z,17.27
2022-09-27T22:26:53.898Z,16.97
2022-09-27T22:29:22.397Z,17.23
2022-09-27T22:31:50.654Z,17.22
2022-09-27T22:34:29.032Z,17.24
2022-09-27T22:37:00.904Z,17.07
2022-09-27T22:39:29.466Z,17.19
2022-09-27T22:41:57.749Z,17.19
2022-09-27T22:44:26.014Z,17.18
2022-09-27T22:46:54.424Z,17.18
2022-09-27T22:49:22.941Z,17.17
2022-09-27T22:51:51.464Z,17.16
2022-09-27T22:54:21.276Z,17.15
2022-09-27T22:56:57.304Z,17.16
2022-09-27T22:59:26.331Z,17.14
2022-09-27T23:01:54.859Z,17.14
2022-09-27T23:04:23.111Z,17.12
2022-09-27T23:06:51.858Z,17.12
2022-09-27T23:09:22.081Z,17.10
2022-09-27T23:11:50.442Z,17.03
2022-09-27T23:14:21.087Z,17.04
2022-09-27T23:16:49.517Z,17.01
2022-09-27T23:19:20.124Z,16.99
2022-09-27T23:21:48.546Z,16.89
2022-09-27T23:24:17.155Z,16.99
2022-09-27T23:27:06.793Z,17.02
2022-09-27T23:29:35.044Z,17.00
2022-09-27T23:32:04.333Z,16.99
2022-09-27T23:34:32.887Z,17.01
2022-09-27T23:37:01.116Z,16.86
2022-09-27T23:39:29.827Z,16.95
2022-09-27T23:41:59.482Z,16.98
2022-09-27T23:44:27.865Z,17.01
2022-09-27T23:47:00.399Z,17.06
2022-09-27T23:49:29.318Z,17.09
2022-09-27T23:51:57.565Z,17.09
2022-09-27T23:54:25.879Z,17.10
2022-09-27T23:56:54.187Z,17.09
2022-09-27T23:59:24.881Z,17.09
